createdAt,value
2022-09-22T00:01:40.680Z,19.43
2022-09-22T00:04:09.250Z,21.57
2022-09-22T00:06:41.350Z,18.47
2022-09-22T00:09:10.290Z,17.20
2022-09-22T00:11:39.366Z,19.37
2022-09-22T00:14:08.354Z,19.13
2022-09-22T00:16:37.948Z,19.23
2022-09-22T00:19:06.933Z,19.43
2022-09-22T00:21:35.085Z,20.63
2022-09-22T00:24:05.068Z,16.33
2022-09-22T00:26:32.834Z,17.27
2022-09-22T00:29:01.387Z,18.23
2022-09-22T00:31:30.116Z,17.40
2022-09-22T00:33:58.355Z,19.20
2022-09-22T00:36:27.155Z,18.23
2022-09-22T00:38:56.353Z,17.97
2022-09-22T00:41:28.808Z,16.73
2022-09-22T00:44:27.315Z,19.60
2022-09-22T00:46:57.722Z,22.57
2022-09-22T00:49:28.535Z,20.23
2022-09-22T00:51:56.459Z,20.10
2022-09-22T00:54:24.287Z,18.90
2022-09-22T00:56:56.170Z,17.67
2022-09-22T00:59:24.571Z,15.17
2022-09-22T01:01:52.531Z,18.60
2022-09-22T01:04:21.329Z,15.37
2022-09-22T01:06:49.369Z,16.07
2022-09-22T01:09:17.379Z,15.53
2022-09-22T01:11:45.320Z,13.27
2022-09-22T01:14:19.791Z,18.67
2022-09-22T01:17:01.293Z,13.80
2022-09-22T01:20:02.542Z,15.77
2022-09-22T01:22:51.870Z,14.47
2022-09-22T01:25:33.232Z,15.00
2022-09-22T01:28:20.900Z,16.90
2022-09-22T01:30:50.947Z,19.70
2022-09-22T01:33:29.356Z,15.17
2022-09-22T01:36:02.956Z,12.10
2022-09-22T01:38:33.800Z,16.00
2022-09-22T01:41:03.527Z,19.80
2022-09-22T01:43:36.865Z,18.13
2022-09-22T01:46:07.841Z,17.30
2022-09-22T01:48:36.460Z,24.60
2022-09-22T01:51:06.817Z,20.37
2022-09-22T01:53:37.529Z,22.30
2022-09-22T01:56:06.530Z,24.77
2022-09-22T01:58:36.112Z,22.10
2022-09-22T02:01:13.619Z,22.87
2022-09-22T02:03:44.615Z,23.50
2022-09-22T02:06:13.785Z,22.57
2022-09-22T02:08:44.008Z,20.43
2022-09-22T02:11:14.186Z,23.60
2022-09-22T02:13:42.248Z,29.30
2022-09-22T02:16:11.932Z,23.53
2022-09-22T02:18:42.837Z,23.83
2022-09-22T02:21:10.700Z,25.53
2022-09-22T02:23:38.617Z,24.53
2022-09-22T02:26:06.692Z,24.87
2022-09-22T02:28:35.128Z,21.33
2022-09-22T02:31:19.546Z,24.57
2022-09-22T02:33:49.664Z,26.70
2022-09-22T02:36:37.801Z,25.10
2022-09-22T02:39:08.374Z,22.73
2022-09-22T02:41:47.679Z,26.70
2022-09-22T02:44:18.009Z,22.60
2022-09-22T02:46:48.224Z,23.70
2022-09-22T02:49:18.234Z,22.70
2022-09-22T02:51:47.430Z,25.10
2022-09-22T02:54:15.902Z,25.33
2022-09-22T02:56:44.453Z,21.00
2022-09-22T02:59:12.692Z,22.03
2022-09-22T03:01:41.312Z,21.47
2022-09-22T03:04:09.277Z,21.90
2022-09-22T03:06:39.029Z,21.77
2022-09-22T03:09:07.183Z,20.03
2022-09-22T03:11:35.307Z,20.87
2022-09-22T03:14:03.228Z,18.63
2022-09-22T03:16:31.465Z,23.53
2022-09-22T03:18:59.628Z,19.77
2022-09-22T03:21:27.565Z,19.30
2022-09-22T03:23:56.857Z,20.00
2022-09-22T03:26:24.852Z,21.23
2022-09-22T03:28:53.772Z,21.67
2022-09-22T03:31:21.800Z,19.97
2022-09-22T03:33:52.749Z,21.40
2022-09-22T03:36:20.903Z,20.97
2022-09-22T03:38:49.091Z,20.30
2022-09-22T03:41:18.535Z,17.73
2022-09-22T03:43:46.966Z,18.23
2022-09-22T03:46:15.130Z,17.50
2022-09-22T03:48:45.338Z,16.40
2022-09-22T03:51:13.383Z,16.30
2022-09-22T03:53:41.633Z,16.70
2022-09-22T03:56:10.336Z,16.20
2022-09-22T03:58:40.163Z,18.40
2022-09-22T04:01:08.505Z,18.73
2022-09-22T04:03:37.181Z,15.50
2022-09-22T04:06:05.179Z,15.93
2022-09-22T04:08:32.948Z,17.50
2022-09-22T04:11:01.471Z,18.17
2022-09-22T04:13:29.552Z,17.07
2022-09-22T04:15:59.148Z,16.50
2022-09-22T04:18:27.149Z,15.13
2022-09-22T04:20:57.646Z,17.53
2022-09-22T04:23:25.743Z,17.60
2022-09-22T04:25:54.109Z,15.83
2022-09-22T04:28:21.938Z,15.57
2022-09-22T04:30:50.243Z,12.87
2022-09-22T04:33:19.487Z,16.30
2022-09-22T04:35:49.088Z,15.30
2022-09-22T04:38:16.968Z,18.63
2022-09-22T04:40:44.881Z,16.50
2022-09-22T04:43:13.398Z,12.57
2022-09-22T04:45:41.584Z,13.10
2022-09-22T04:48:09.945Z,15.73
2022-09-22T04:50:39.339Z,16.70
2022-09-22T04:53:07.786Z,15.03
2022-09-22T04:55:35.636Z,16.37
2022-09-22T04:58:05.503Z,11.87
2022-09-22T05:00:33.369Z,11.43
2022-09-22T05:03:02.493Z,12.80
2022-09-22T05:05:30.535Z,11.63
2022-09-22T05:08:00.543Z,11.90
2022-09-22T05:10:32.268Z,13.93
2022-09-22T05:13:00.143Z,11.87
2022-09-22T05:15:27.945Z,11.90
2022-09-22T05:17:56.240Z,11.00
2022-09-22T05:20:24.620Z,12.87
2022-09-22T05:22:53.416Z,13.80
2022-09-22T05:25:23.255Z,10.63
2022-09-22T05:27:52.290Z,12.60
2022-09-22T05:30:21.208Z,11.43
2022-09-22T05:32:49.290Z,12.80
2022-09-22T05:35:18.739Z,11.37
2022-09-22T05:37:46.948Z,12.63
2022-09-22T05:40:15.453Z,10.90
2022-09-22T05:42:46.358Z,10.77
2022-09-22T05:45:14.451Z,15.27
2022-09-22T05:47:42.351Z,11.90
2022-09-22T05:50:10.918Z,10.30
2022-09-22T05:52:38.892Z,11.00
2022-09-22T05:55:07.590Z,10.60
2022-09-22T05:57:35.552Z,10.30
2022-09-22T06:00:06.197Z,10.87
2022-09-22T06:02:34.571Z,8.40
2022-09-22T06:05:02.351Z,9.97
2022-09-22T06:07:30.224Z,10.03
2022-09-22T06:09:58.020Z,8.13
2022-09-22T06:12:26.038Z,10.17
2022-09-22T06:14:54.004Z,9.30
2022-09-22T06:17:23.709Z,9.97
2022-09-22T06:19:51.680Z,8.50
2022-09-22T06:22:20.035Z,9.17
2022-09-22T06:24:48.824Z,9.80
2022-09-22T06:27:17.061Z,10.20
2022-09-22T06:29:45.382Z,10.13
2022-09-22T06:32:13.712Z,8.37
2022-09-22T06:34:46.985Z,9.33
2022-09-22T06:37:16.200Z,9.00
2022-09-22T06:39:44.246Z,7.83
2022-09-22T06:42:14.451Z,9.67
2022-09-22T06:44:42.310Z,8.97
2022-09-22T06:47:10.151Z,9.63
2022-09-22T06:49:38.074Z,11.67
2022-09-22T06:52:10.411Z,8.27
2022-09-22T06:54:42.298Z,7.90
2022-09-22T06:57:13.138Z,9.87
2022-09-22T06:59:41.279Z,9.73
2022-09-22T07:02:10.755Z,11.70
2022-09-22T07:04:38.974Z,11.17
2022-09-22T07:07:08.852Z,12.40
2022-09-22T07:09:37.023Z,13.13
2022-09-22T07:12:06.147Z,16.97
2022-09-22T07:14:34.552Z,17.27
2022-09-22T07:17:02.571Z,20.37
2022-09-22T07:19:36.788Z,17.03
2022-09-22T07:22:04.954Z,13.93
2022-09-22T07:24:34.244Z,20.73
2022-09-22T07:27:04.575Z,21.10
2022-09-22T07:29:33.368Z,12.10
2022-09-22T07:32:02.916Z,12.40
2022-09-22T07:34:30.869Z,24.53
2022-09-22T07:36:59.828Z,17.63
2022-09-22T07:39:27.656Z,12.90
2022-09-22T07:41:57.350Z,14.17
2022-09-22T07:44:44.589Z,17.23
2022-09-22T07:47:13.006Z,18.50
2022-09-22T07:49:40.666Z,14.70
2022-09-22T07:52:08.367Z,15.53
2022-09-22T07:54:36.872Z,21.67
2022-09-22T07:57:09.435Z,11.20
2022-09-22T07:59:37.522Z,12.13
2022-09-22T08:02:06.350Z,9.23
2022-09-22T08:04:35.325Z,28.73
2022-09-22T08:07:03.535Z,29.23
2022-09-22T08:09:33.228Z,25.00
2022-09-22T08:12:01.567Z,11.00
2022-09-22T08:14:31.110Z,9.83
2022-09-22T08:16:59.055Z,15.23
2022-09-22T08:19:27.573Z,18.50
2022-09-22T08:21:57.806Z,13.77
2022-09-22T08:24:26.209Z,8.20
2022-09-22T08:26:56.326Z,17.00
2022-09-22T08:29:24.770Z,8.90
2022-09-22T08:31:53.982Z,14.13
2022-09-22T08:34:22.843Z,13.70
2022-09-22T08:36:50.706Z,11.27
2022-09-22T08:39:19.317Z,8.63
2022-09-22T08:41:56.476Z,8.57
2022-09-22T08:44:26.665Z,14.50
2022-09-22T08:46:56.694Z,11.53
2022-09-22T08:49:43.739Z,10.60
2022-09-22T08:52:16.219Z,9.07
2022-09-22T08:54:44.287Z,9.30
2022-09-22T08:57:41.390Z,13.40
2022-09-22T09:00:13.003Z,6.23
2022-09-22T09:02:46.051Z,5.10
2022-09-22T09:06:00.672Z,8.77
2022-09-22T09:09:11.074Z,6.73
2022-09-22T09:11:54.818Z,4.10
2022-09-22T09:14:34.703Z,9.27
2022-09-22T09:17:04.379Z,3.73
2022-09-22T09:19:36.456Z,7.57
2022-09-22T09:22:08.903Z,3.93
2022-09-22T09:27:28.643Z,3.30
2022-09-22T09:30:00.851Z,5.27
2022-09-22T09:32:34.435Z,4.33
2022-09-22T09:37:31.590Z,4.30
2022-09-22T09:39:59.801Z,3.40
2022-09-22T09:42:29.574Z,11.00
2022-09-22T09:45:02.564Z,4.80
2022-09-22T09:47:44.652Z,4.30
2022-09-22T09:50:13.904Z,6.00
2022-09-22T09:52:42.754Z,5.53
2022-09-22T09:55:18.527Z,12.73
2022-09-22T09:58:05.385Z,4.70
2022-09-22T10:00:32.758Z,5.20
2022-09-22T10:03:13.018Z,7.03
2022-09-22T10:05:43.491Z,7.73
2022-09-22T10:08:20.153Z,6.50
2022-09-22T10:10:48.272Z,3.60
2022-09-22T10:13:27.817Z,5.70
2022-09-22T10:16:04.337Z,5.43
2022-09-22T10:18:36.328Z,4.63
2022-09-22T10:21:07.357Z,4.13
2022-09-22T10:23:35.693Z,11.50
2022-09-22T10:26:21.970Z,3.27
2022-09-22T10:29:08.686Z,5.60
2022-09-22T10:31:38.282Z,8.10
2022-09-22T10:34:06.501Z,3.40
2022-09-22T10:36:36.346Z,6.93
2022-09-22T10:39:04.380Z,5.43
2022-09-22T10:41:34.202Z,3.53
2022-09-22T10:44:27.415Z,5.03
2022-09-22T10:47:26.806Z,3.30
2022-09-22T10:50:07.362Z,3.83
2022-09-22T10:52:39.597Z,3.63
2022-09-22T10:55:18.243Z,4.20
2022-09-22T10:57:58.079Z,3.80
2022-09-22T11:00:26.286Z,7.13
2022-09-22T11:03:20.142Z,4.70
2022-09-22T11:06:14.170Z,6.57
2022-09-22T11:09:09.422Z,4.10
2022-09-22T11:11:58.096Z,4.03
2022-09-22T11:14:33.541Z,9.60
2022-09-22T11:17:10.458Z,5.13
2022-09-22T11:19:44.964Z,5.93
2022-09-22T11:22:24.596Z,3.90
2022-09-22T11:25:01.037Z,4.13
2022-09-22T11:27:36.397Z,5.90
2022-09-22T11:30:11.239Z,3.43
2022-09-22T11:32:57.563Z,4.70
2022-09-22T11:35:50.848Z,5.23
2022-09-22T11:38:31.812Z,3.77
2022-09-22T11:41:16.434Z,3.00
2022-09-22T11:43:53.456Z,6.00
2022-09-22T11:46:23.793Z,3.47
2022-09-22T11:48:59.264Z,3.13
2022-09-22T11:51:34.665Z,3.07
2022-09-22T11:54:15.325Z,4.77
2022-09-22T11:56:45.479Z,3.27
2022-09-22T11:59:20.009Z,9.57
2022-09-22T12:01:47.706Z,9.37
2022-09-22T12:04:20.188Z,9.53
2022-09-22T12:06:50.855Z,4.93
2022-09-22T12:09:32.829Z,7.47
2022-09-22T12:12:05.932Z,3.33
2022-09-22T12:14:34.097Z,4.37
2022-09-22T12:17:06.481Z,3.17
2022-09-22T12:19:39.628Z,3.70
2022-09-22T12:22:11.854Z,6.27
2022-09-22T12:24:39.832Z,4.90
2022-09-22T12:27:13.051Z,2.90
2022-09-22T12:29:41.550Z,4.80
2022-09-22T12:32:21.907Z,2.70
2022-09-22T12:34:49.649Z,3.87
2022-09-22T12:37:22.899Z,5.87
2022-09-22T12:39:50.879Z,4.80
2022-09-22T12:42:22.454Z,3.93
2022-09-22T12:44:52.693Z,3.60
2022-09-22T12:47:22.351Z,3.70
2022-09-22T12:49:50.123Z,4.33
2022-09-22T12:53:02.418Z,3.27
2022-09-22T12:55:38.301Z,2.50
2022-09-22T12:58:40.869Z,3.13
2022-09-22T13:01:30.075Z,2.90
2022-09-22T13:04:06.676Z,3.63
2022-09-22T13:06:54.127Z,2.90
2022-09-22T13:09:24.544Z,3.10
2022-09-22T13:12:26.997Z,3.87
2022-09-22T13:15:24.648Z,3.90
2022-09-22T13:17:52.550Z,2.53
2022-09-22T13:20:25.068Z,2.57
2022-09-22T13:22:55.587Z,2.70
2022-09-22T13:25:27.683Z,2.83
2022-09-22T13:28:14.491Z,3.17
2022-09-22T13:30:47.301Z,2.37
2022-09-22T13:33:20.644Z,2.60
2022-09-22T13:35:48.635Z,2.80
2022-09-22T13:38:17.138Z,6.70
2022-09-22T13:40:49.747Z,5.70
2022-09-22T13:43:30.774Z,3.40
2022-09-22T13:46:00.242Z,5.27
2022-09-22T13:48:30.120Z,2.70
2022-09-22T13:51:01.278Z,4.23
2022-09-22T13:53:29.047Z,4.13
2022-09-22T13:55:57.855Z,7.20
2022-09-22T13:58:28.740Z,7.20
2022-09-22T14:01:14.335Z,3.53
2022-09-22T14:03:44.380Z,6.50
2022-09-22T14:06:13.698Z,4.10
2022-09-22T14:08:43.504Z,3.27
2022-09-22T14:11:14.195Z,4.53
2022-09-22T14:13:44.210Z,8.63
2022-09-22T14:16:16.208Z,3.97
2022-09-22T14:18:47.046Z,3.63
2022-09-22T14:21:14.850Z,3.37
2022-09-22T14:23:47.051Z,9.57
2022-09-22T14:26:23.377Z,6.37
2022-09-22T14:28:51.120Z,5.43
2022-09-22T14:31:22.758Z,8.80
2022-09-22T14:33:52.258Z,7.90
2022-09-22T14:36:21.533Z,8.33
2022-09-22T14:39:04.153Z,12.10
2022-09-22T14:41:37.424Z,4.60
2022-09-22T14:44:26.327Z,9.33
2022-09-22T14:46:56.231Z,7.90
2022-09-22T14:49:39.533Z,5.80
2022-09-22T14:52:08.524Z,5.90
2022-09-22T14:54:38.427Z,6.93
2022-09-22T14:57:08.115Z,5.80
2022-09-22T14:59:54.667Z,6.70
2022-09-22T15:02:36.097Z,10.13
2022-09-22T15:05:05.743Z,7.30
2022-09-22T15:07:35.907Z,5.50
2022-09-22T15:10:05.305Z,14.63
2022-09-22T15:12:38.860Z,6.53
2022-09-22T15:15:17.089Z,8.03
2022-09-22T15:18:03.964Z,6.90
2022-09-22T15:20:38.765Z,9.33
2022-09-22T15:23:08.989Z,10.60
2022-09-22T15:25:37.024Z,8.50
2022-09-22T15:28:11.726Z,11.33
2022-09-22T15:30:39.790Z,7.97
2022-09-22T15:33:07.937Z,11.13
2022-09-22T15:35:38.003Z,7.27
2022-09-22T15:38:07.728Z,8.97
2022-09-22T15:40:35.515Z,7.67
2022-09-22T15:43:13.359Z,4.07
2022-09-22T15:45:48.025Z,6.80
2022-09-22T15:48:24.823Z,6.70
2022-09-22T15:50:54.072Z,7.53
2022-09-22T15:53:23.060Z,4.57
2022-09-22T15:55:51.386Z,3.50
2022-09-22T15:58:19.354Z,6.10
2022-09-22T16:00:47.985Z,7.03
2022-09-22T16:03:22.213Z,4.07
2022-09-22T16:05:56.654Z,4.87
2022-09-22T16:08:31.253Z,3.33
2022-09-22T16:11:00.111Z,5.17
2022-09-22T16:13:27.907Z,5.80
2022-09-22T16:15:56.411Z,5.50
2022-09-22T16:18:24.229Z,4.27
2022-09-22T16:20:53.965Z,3.70
2022-09-22T16:23:21.904Z,2.90
2022-09-22T16:25:54.496Z,4.70
2022-09-22T16:28:22.422Z,2.10
2022-09-22T16:30:51.314Z,3.07
2022-09-22T16:33:19.237Z,2.83
2022-09-22T16:35:47.355Z,1.90
2022-09-22T16:38:16.606Z,5.70
2022-09-22T16:40:44.876Z,3.73
2022-09-22T16:43:13.265Z,3.70
2022-09-22T16:45:59.077Z,3.30
2022-09-22T16:48:27.064Z,5.30
2022-09-22T16:50:56.306Z,4.90
2022-09-22T16:53:25.848Z,2.10
2022-09-22T16:55:54.766Z,2.30
2022-09-22T16:58:24.284Z,6.63
2022-09-22T17:00:52.232Z,5.20
2022-09-22T17:03:20.012Z,2.77
2022-09-22T17:05:47.804Z,4.93
2022-09-22T17:08:15.855Z,2.80
2022-09-22T17:10:46.197Z,3.47
2022-09-22T17:13:14.496Z,4.33
2022-09-22T17:15:42.450Z,2.70
2022-09-22T17:18:11.335Z,2.13
2022-09-22T17:20:39.592Z,2.47
2022-09-22T17:23:08.099Z,2.50
2022-09-22T17:25:35.959Z,3.53
2022-09-22T17:28:05.567Z,4.67
2022-09-22T17:30:33.341Z,5.93
2022-09-22T17:33:01.757Z,2.30
2022-09-22T17:35:29.628Z,2.83
2022-09-22T17:37:58.980Z,2.43
2022-09-22T17:40:26.983Z,2.63
2022-09-22T17:42:56.467Z,2.20
2022-09-22T17:45:25.781Z,4.10
2022-09-22T17:48:19.255Z,4.70
2022-09-22T17:51:08.299Z,6.33
2022-09-22T17:53:53.770Z,3.50
2022-09-22T17:56:21.782Z,3.80
2022-09-22T17:58:49.639Z,2.67
2022-09-22T18:01:19.371Z,2.27
2022-09-22T18:03:48.865Z,3.53
2022-09-22T18:06:20.926Z,6.70
2022-09-22T18:08:49.014Z,8.40
2022-09-22T18:11:16.988Z,4.10
2022-09-22T18:13:45.564Z,9.43
2022-09-22T18:16:22.328Z,5.03
2022-09-22T18:18:50.573Z,8.40
2022-09-22T18:21:18.545Z,5.50
2022-09-22T18:23:46.861Z,9.77
2022-09-22T18:26:17.825Z,2.93
2022-09-22T18:28:46.055Z,3.93
2022-09-22T18:31:15.737Z,9.23
2022-09-22T18:33:46.043Z,7.90
2022-09-22T18:36:14.042Z,4.10
2022-09-22T18:38:43.001Z,6.73
2022-09-22T18:41:10.914Z,13.80
2022-09-22T18:43:41.539Z,9.80
2022-09-22T18:46:09.520Z,5.37
2022-09-22T18:48:41.284Z,8.13
2022-09-22T18:51:10.483Z,11.00
2022-09-22T18:53:39.058Z,8.30
2022-09-22T18:56:11.248Z,8.10
2022-09-22T18:58:39.738Z,15.70
2022-09-22T19:01:07.787Z,8.90
2022-09-22T19:03:36.334Z,5.77
2022-09-22T19:06:06.659Z,6.90
2022-09-22T19:08:36.173Z,7.93
2022-09-22T19:11:04.329Z,8.77
2022-09-22T19:13:32.244Z,7.93
2022-09-22T19:16:01.162Z,8.20
2022-09-22T19:18:29.166Z,10.43
2022-09-22T19:20:57.171Z,17.80
2022-09-22T19:23:25.300Z,10.87
2022-09-22T19:25:55.121Z,8.03
2022-09-22T19:28:25.963Z,10.30
2022-09-22T19:30:53.885Z,16.77
2022-09-22T19:33:21.722Z,9.70
2022-09-22T19:35:49.552Z,6.33
2022-09-22T19:38:18.124Z,12.33
2022-09-22T19:40:46.633Z,12.73
2022-09-22T19:43:16.721Z,10.13
2022-09-22T19:45:45.132Z,12.93
2022-09-22T19:48:14.929Z,5.10
2022-09-22T19:50:43.013Z,10.87
2022-09-22T19:53:11.598Z,16.10
2022-09-22T19:55:39.773Z,13.10
2022-09-22T19:58:08.354Z,12.73
2022-09-22T20:00:38.291Z,12.73
2022-09-22T20:03:06.904Z,11.30
2022-09-22T20:05:36.801Z,11.43
2022-09-22T20:08:05.049Z,14.60
2022-09-22T20:10:33.685Z,9.00
2022-09-22T20:13:22.430Z,7.50
2022-09-22T20:15:51.884Z,9.57
2022-09-22T20:18:21.934Z,10.93
2022-09-22T20:20:51.258Z,15.17
2022-09-22T20:23:20.194Z,14.43
2022-09-22T20:25:50.941Z,8.93
2022-09-22T20:28:19.053Z,15.30
2022-09-22T20:30:47.106Z,16.23
2022-09-22T20:33:20.172Z,9.90
2022-09-22T20:35:48.859Z,19.77
2022-09-22T20:38:16.930Z,8.93
2022-09-22T20:40:45.647Z,11.90
2022-09-22T20:43:13.986Z,10.53
2022-09-22T20:45:42.651Z,15.90
2022-09-22T20:48:11.662Z,16.63
2022-09-22T20:50:41.576Z,15.20
2022-09-22T20:53:09.436Z,22.50
2022-09-22T20:55:38.288Z,14.47
2022-09-22T20:58:06.338Z,14.80
2022-09-22T21:00:34.341Z,18.17
2022-09-22T21:03:02.302Z,18.23
2022-09-22T21:05:30.267Z,15.30
2022-09-22T21:08:13.568Z,18.13
2022-09-22T21:10:42.007Z,18.70
2022-09-22T21:13:10.031Z,17.07
2022-09-22T21:15:38.552Z,20.17
2022-09-22T21:18:07.091Z,15.93
2022-09-22T21:20:35.134Z,13.20
2022-09-22T21:23:04.888Z,14.17
2022-09-22T21:25:32.903Z,18.50
2022-09-22T21:28:01.095Z,18.87
2022-09-22T21:30:29.153Z,14.53
2022-09-22T21:32:57.188Z,14.77
2022-09-22T21:35:25.248Z,13.50
2022-09-22T21:37:56.647Z,17.37
2022-09-22T21:40:26.186Z,17.50
2022-09-22T21:42:54.278Z,13.80
2022-09-22T21:45:22.284Z,20.73
2022-09-22T21:47:51.722Z,12.33
2022-09-22T21:50:19.676Z,15.10
2022-09-22T21:52:47.578Z,14.00
2022-09-22T21:55:15.489Z,17.27
2022-09-22T21:57:45.370Z,16.53
2022-09-22T22:00:14.256Z,14.43
2022-09-22T22:02:56.041Z,12.70
2022-09-22T22:05:24.070Z,12.17
2022-09-22T22:07:52.195Z,13.73
2022-09-22T22:10:20.524Z,18.43
2022-09-22T22:12:50.087Z,14.53
2022-09-22T22:15:18.129Z,15.33
2022-09-22T22:17:46.028Z,12.00
2022-09-22T22:20:14.394Z,11.67
2022-09-22T22:22:42.463Z,13.43
2022-09-22T22:25:18.474Z,13.67
2022-09-22T22:27:46.653Z,10.93
2022-09-22T22:30:16.409Z,11.40
2022-09-22T22:32:44.389Z,9.23
2022-09-22T22:35:13.132Z,20.33
2022-09-22T22:37:43.101Z,11.40
2022-09-22T22:40:11.986Z,12.60
2022-09-22T22:42:40.006Z,11.80
2022-09-22T22:45:08.729Z,9.13
2022-09-22T22:47:38.086Z,9.90
2022-09-22T22:50:07.123Z,9.07
2022-09-22T22:52:38.196Z,13.67
2022-09-22T22:55:07.031Z,12.43
2022-09-22T22:57:35.434Z,9.60
2022-09-22T23:00:03.962Z,11.57
2022-09-22T23:02:32.297Z,10.30
2022-09-22T23:05:01.770Z,12.73
2022-09-22T23:07:29.847Z,16.03
2022-09-22T23:10:06.288Z,11.53
2022-09-22T23:12:35.153Z,10.10
2022-09-22T23:15:03.209Z,11.10
2022-09-22T23:17:32.387Z,14.80
2022-09-22T23:20:01.859Z,9.40
2022-09-22T23:22:30.879Z,11.00
2022-09-22T23:24:58.889Z,12.47
2022-09-22T23:27:27.032Z,7.80
2022-09-22T23:29:56.692Z,12.50
2022-09-22T23:32:25.471Z,10.30
2022-09-22T23:34:53.617Z,11.50
2022-09-22T23:37:25.085Z,10.87
2022-09-22T23:39:53.249Z,10.17
2022-09-22T23:42:21.768Z,10.77
2022-09-22T23:44:49.733Z,9.37
2022-09-22T23:47:17.772Z,9.23
2022-09-22T23:49:45.680Z,13.00
2022-09-22T23:52:13.498Z,9.00
2022-09-22T23:54:43.204Z,12.13
2022-09-22T23:57:11.645Z,9.17
2022-09-22T23:59:39.943Z,10.63
